Time;durP1;ratioP1;P1;durP2;ratioP2;P2;SDS_P1;SDS_P2;PMS_P1;PMS_P2;Temp;Humidity;BMP_temperature;BMP_pressure;BME280_temperature;BME280_humidity;BME280_pressure;Samples;Min_cycle;Max_cycle;Signal;HPM_P1;HPM_P2
2022/05/09 00:01:02;;;;;;;5.07;4.60;;;;;;;21.32;34.15;95511.59;6205069;28;104623;-57
2022/05/09 00:04:04;;;;;;;5.00;4.33;;;;;;;21.33;34.36;95502.53;6182959;28;104629;-57
2022/05/09 00:07:07;;;;;;;5.73;4.83;;;;;;;21.32;34.16;95500.16;6185829;28;103612;-57
2022/05/09 00:10:11;;;;;;;5.13;4.60;;;;;;;21.32;34.41;95500.94;6195639;28;103751;-57
2022/05/09 00:13:13;;;;;;;4.60;4.20;;;;;;;21.31;34.51;95498.59;6187548;28;103884;-56
2022/05/09 00:16:14;;;;;;;5.40;4.60;;;;;;;21.30;34.32;95497.78;6202640;28;104717;-57
2022/05/09 00:19:17;;;;;;;5.00;4.30;;;;;;;21.31;34.37;95498.59;6208339;28;104971;-57
2022/05/09 00:22:19;;;;;;;4.90;4.50;;;;;;;21.29;34.13;95496.22;6205663;28;103470;-57
2022/05/09 00:25:24;;;;;;;6.20;4.63;;;;;;;21.28;33.97;95505.28;6172092;28;103966;-57
2022/05/09 00:28:26;;;;;;;4.70;4.07;;;;;;;21.28;34.01;95507.16;6208119;28;103736;-57
2022/05/09 00:31:28;;;;;;;4.50;4.10;;;;;;;21.22;34.16;95514.44;6207749;28;103702;-57
2022/05/09 00:34:30;;;;;;;4.87;4.20;;;;;;;21.24;33.74;95517.59;6206011;28;104741;-57
2022/05/09 00:37:31;;;;;;;4.30;3.93;;;;;;;21.25;34.07;95516.50;6180809;28;104828;-57
2022/05/09 00:40:33;;;;;;;4.33;3.93;;;;;;;21.25;33.87;95521.03;6206494;28;103737;-57
2022/05/09 00:43:38;;;;;;;4.27;3.90;;;;;;;21.23;33.67;95510.69;6207703;28;103894;-57
2022/05/09 00:46:42;;;;;;;4.83;4.43;;;;;;;21.25;34.11;95516.50;6191859;28;103677;-56
2022/05/09 00:49:49;;;;;;;4.93;4.30;;;;;;;21.21;34.09;95515.50;6190835;28;105277;-57
2022/05/09 00:53:04;;;;;;;4.40;4.00;;;;;;;21.23;34.04;95518.66;6198478;28;103801;-57
2022/05/09 00:56:13;;;;;;;4.37;3.97;;;;;;;21.22;33.98;95514.44;6208354;28;104736;-57
2022/05/09 00:59:18;;;;;;;4.30;3.87;;;;;;;21.21;34.03;95518.16;6196818;28;103910;-57
2022/05/09 01:02:20;;;;;;;4.27;3.97;;;;;;;21.19;34.23;95517.66;6185985;28;103773;-56
2022/05/09 01:05:22;;;;;;;4.40;3.93;;;;;;;21.20;34.09;95514.72;6202508;28;103682;-55
2022/05/09 01:08:25;;;;;;;4.70;4.10;;;;;;;21.21;34.67;95518.97;6207280;28;103945;-55
2022/05/09 01:11:28;;;;;;;4.30;3.90;;;;;;;21.21;34.42;95526.16;6196569;28;105099;-58
2022/05/09 01:14:32;;;;;;;6.30;5.17;;;;;;;21.19;33.85;95517.66;6207764;28;104880;-58
2022/05/09 01:17:39;;;;;;;4.57;4.23;;;;;;;21.17;34.53;95512.63;6187824;28;103973;-58
2022/05/09 01:20:41;;;;;;;4.70;4.30;;;;;;;21.18;34.25;95516.09;6196810;28;103671;-57
2022/05/09 01:23:43;;;;;;;4.80;4.40;;;;;;;21.15;33.87;95517.44;6195631;28;105571;-57
2022/05/09 01:26:46;;;;;;;5.40;4.50;;;;;;;21.16;34.03;95513.69;6202116;28;103844;-58
2022/05/09 01:29:51;;;;;;;5.33;4.53;;;;;;;21.16;34.21;95512.91;6182963;28;104720;-58
2022/05/09 01:32:55;;;;;;;4.60;4.10;;;;;;;21.14;33.97;95504.41;6176664;28;104738;-57
2022/05/09 01:36:01;;;;;;;4.60;4.20;;;;;;;21.17;33.98;95506.50;6206263;28;104596;-57
2022/05/09 01:39:07;;;;;;;5.93;5.00;;;;;;;21.16;33.97;95516.34;6186447;28;103827;-57
2022/05/09 01:42:09;;;;;;;4.63;4.23;;;;;;;21.13;34.05;95518.81;6185212;28;103781;-58
2022/05/09 01:45:13;;;;;;;5.00;4.20;;;;;;;21.14;33.96;95520.38;6195846;28;103875;-58
2022/05/09 01:51:38;;;;;;;4.60;4.27;;;;;;;21.12;33.50;95514.56;6202781;28;103895;-57
2022/05/09 01:54:43;;;;;;;4.80;4.40;;;;;;;21.11;33.64;95520.97;6198108;28;104793;-57
2022/05/09 01:57:44;;;;;;;4.70;4.30;;;;;;;21.12;33.44;95522.53;6193500;28;103688;-57
2022/05/09 02:00:46;;;;;;;4.63;4.33;;;;;;;21.09;33.53;95517.81;6204696;28;104961;-58
2022/05/09 02:03:49;;;;;;;4.30;4.00;;;;;;;21.07;33.51;95517.31;6201399;28;104758;-60
2022/05/09 02:06:52;;;;;;;5.40;4.30;;;;;;;21.09;33.62;95515.13;6172145;28;104791;-57
2022/05/09 02:09:54;;;;;;;4.60;4.20;;;;;;;21.07;33.76;95517.31;6181469;28;104793;-58
2022/05/09 02:12:56;;;;;;;7.27;4.20;;;;;;;21.08;33.30;95513.56;6192004;28;103864;-57
2022/05/09 02:15:57;;;;;;;4.80;4.30;;;;;;;21.05;33.54;95516.81;6181688;28;105134;-57
2022/05/09 02:18:59;;;;;;;5.63;4.17;;;;;;;21.05;33.48;95525.56;6191502;28;103654;-58
2022/05/09 02:22:02;;;;;;;4.33;3.93;;;;;;;21.03;33.32;95525.03;6206317;28;104926;-57
2022/05/09 02:25:26;;;;;;;4.73;4.33;;;;;;;21.02;33.23;95523.47;6204638;28;103667;-57
2022/05/09 02:28:25;;;;;;;4.67;4.37;;;;;;;21.03;33.44;95529.56;6182052;28;105127;-57
2022/05/09 02:31:27;;;;;;;4.10;3.73;;;;;;;21.02;33.46;95538.63;6177643;28;104686;-58
2022/05/09 02:34:29;;;;;;;4.37;3.97;;;;;;;21.02;33.38;95528.78;6204022;28;103524;-57
2022/05/09 02:37:31;;;;;;;4.60;4.30;;;;;;;21.00;33.66;95525.59;6205647;28;103532;-57
2022/05/09 02:40:36;;;;;;;4.70;4.33;;;;;;;21.01;33.51;95534.38;6181175;28;104983;-57
2022/05/09 02:43:37;;;;;;;4.67;4.23;;;;;;;20.96;33.30;95532.56;6175606;28;104006;-57
2022/05/09 02:46:42;;;;;;;4.43;4.13;;;;;;;21.00;33.43;95535.44;6190702;28;103881;-57
2022/05/09 02:49:43;;;;;;;4.57;4.17;;;;;;;21.01;33.62;95542.38;6204052;28;103394;-58
2022/05/09 02:52:47;;;;;;;4.57;4.27;;;;;;;20.99;33.87;95544.50;6184253;28;103938;-57
2022/05/09 02:55:49;;;;;;;4.30;4.00;;;;;;;20.98;33.44;95546.38;6202563;28;103921;-57
2022/05/09 02:58:51;;;;;;;5.97;4.50;;;;;;;20.98;33.61;95546.38;6204123;28;103913;-57
2022/05/09 03:01:52;;;;;;;5.03;4.63;;;;;;;;;;6204875;28;104794;-56
2022/05/09 03:04:54;;;;;;;4.30;4.00;;;;;;;20.97;33.62;95546.66;6191495;28;103838;-57
2022/05/09 03:07:56;;;;;;;4.73;4.30;;;;;;;20.96;33.39;95547.75;6191648;28;103958;-56
2022/05/09 03:10:57;;;;;;;4.33;3.90;;;;;;;20.66;33.35;95562.19;6191657;28;105121;-55
2022/05/09 03:13:59;;;;;;;6.53;4.43;;;;;;;20.56;33.61;95563.13;6206413;28;103828;-56
2022/05/09 03:17:01;;;;;;;10.10;4.60;;;;;;;20.54;33.34;95565.25;6200700;28;103895;-55
2022/05/09 03:20:04;;;;;;;4.40;4.00;;;;;;;20.51;33.25;95560.50;6206912;28;103903;-56
2022/05/09 03:23:08;;;;;;;5.73;4.67;;;;;;;20.55;33.34;95564.19;6195569;28;103779;-59
2022/05/09 03:26:09;;;;;;;6.40;4.90;;;;;;;20.57;32.90;95562.03;6199543;28;105192;-60
2022/05/09 03:29:12;;;;;;;6.07;5.37;;;;;;;20.53;32.92;95569.00;6207853;28;104988;-60
2022/05/09 03:32:15;;;;;;;5.93;4.90;;;;;;;20.35;33.23;95573.16;6206729;28;104314;-59
2022/05/09 03:35:17;;;;;;;5.53;5.03;;;;;;;20.22;33.24;95568.47;6190461;28;105141;-59
2022/05/09 03:38:19;;;;;;;4.90;4.50;;;;;;;20.45;33.26;95569.59;6191041;28;104994;-59
2022/05/09 03:41:21;;;;;;;6.13;4.77;;;;;;;20.52;33.08;95570.06;6207589;28;104319;-59
2022/05/09 03:44:22;;;;;;;5.30;4.77;;;;;;;20.53;33.05;95575.09;6203896;28;103611;-59
2022/05/09 03:47:24;;;;;;;7.50;4.83;;;;;;;20.60;33.59;95577.41;6194081;28;103898;-59
2022/05/09 03:50:28;;;;;;;7.00;5.43;;;;;;;20.58;34.14;95577.69;6188698;28;104156;-59
2022/05/09 03:53:30;;;;;;;8.00;5.50;;;;;;;20.65;34.16;95574.69;6204271;28;103650;-59
2022/05/09 03:56:32;;;;;;;5.83;4.80;;;;;;;20.67;34.55;95572.56;6197616;28;104801;-59
2022/05/09 03:59:34;;;;;;;4.90;4.50;;;;;;;20.63;34.63;95568.88;6201618;28;104978;-59
2022/05/09 04:02:36;;;;;;;5.67;4.60;;;;;;;20.63;34.69;95571.53;6194556;28;104880;-58
2022/05/09 04:05:38;;;;;;;9.17;6.30;;;;;;;20.72;35.06;95567.19;6208017;28;103741;-59
2022/05/09 04:08:40;;;;;;;6.40;4.50;;;;;;;20.84;35.40;95572.13;6215091;28;104815;-60
2022/05/09 04:11:42;;;;;;;8.40;4.93;;;;;;;20.71;35.38;95570.91;6183286;28;103104;-58
2022/05/09 04:18:05;;;;;;;9.57;4.60;;;;;;;20.76;34.98;95568.19;6205626;28;103892;-58
2022/05/09 04:21:09;;;;;;;6.33;4.50;;;;;;;20.68;35.11;95565.38;6208566;28;103734;-57
2022/05/09 04:24:11;;;;;;;5.90;5.30;;;;;;;20.75;34.92;95571.94;6199580;28;104953;-59
2022/05/09 04:27:12;;;;;;;5.43;5.00;;;;;;;20.71;35.12;95581.56;6210076;28;105134;-59
2022/05/09 04:30:15;;;;;;;8.40;5.00;;;;;;;20.71;34.79;95583.44;6209456;28;104790;-58
2022/05/09 04:33:17;;;;;;;5.53;5.03;;;;;;;20.72;35.06;95583.13;6209134;28;104018;-58
2022/05/09 04:36:19;;;;;;;7.03;4.27;;;;;;;20.71;34.86;95576.25;6198333;28;104079;-58
2022/05/09 04:39:21;;;;;;;6.10;4.60;;;;;;;20.72;34.87;95574.38;6209858;28;104842;-58
2022/05/09 04:42:23;;;;;;;5.23;4.53;;;;;;;20.72;34.94;95588.47;6209168;28;103857;-59
2022/05/09 04:45:26;;;;;;;4.70;4.30;;;;;;;20.75;34.63;95590.53;6203593;28;105198;-59
2022/05/09 04:48:29;;;;;;;4.80;4.30;;;;;;;20.73;34.86;95586.59;6203651;28;103961;-59
2022/05/09 04:51:31;;;;;;;4.23;3.93;;;;;;;20.72;35.01;95593.00;6208303;28;103735;-59
2022/05/09 04:54:32;;;;;;;6.30;4.17;;;;;;;20.72;34.95;95598.31;6208724;28;105311;-59
2022/05/09 04:57:34;;;;;;;5.10;4.60;;;;;;;20.75;34.84;95592.41;6199296;28;104039;-59
2022/05/09 05:00:36;;;;;;;5.30;4.70;;;;;;;20.75;34.84;95592.41;6208638;28;104842;-58
2022/05/09 05:03:38;;;;;;;5.53;5.03;;;;;;;20.73;35.01;95598.03;6208808;28;105022;-58
2022/05/09 05:06:40;;;;;;;5.80;4.73;;;;;;;20.74;35.07;95593.50;6206303;28;103904;-58
2022/05/09 05:09:42;;;;;;;5.07;4.57;;;;;;;20.71;35.09;95597.50;6198594;28;103881;-58
2022/05/09 05:12:44;;;;;;;5.23;4.73;;;;;;;20.75;34.99;95598.53;6208731;28;105026;-60
2022/05/09 05:15:47;;;;;;;4.93;4.43;;;;;;;20.70;35.15;95598.59;6208099;28;103746;-59
2022/05/09 05:18:50;;;;;;;5.23;4.50;;;;;;;20.71;35.29;95596.72;6208909;28;104771;-59
2022/05/09 05:21:52;;;;;;;7.43;5.10;;;;;;;20.73;35.12;95602.56;6198104;28;104867;-60
2022/05/09 05:24:54;;;;;;;9.83;5.20;;;;;;;20.75;35.44;95598.53;6208387;28;103860;-66
2022/05/09 05:27:57;;;;;;;7.00;5.30;;;;;;;20.77;34.99;95595.59;6208340;28;103882;-59
2022/05/09 05:31:16;;;;;;;4.93;4.40;;;;;;;20.79;35.14;95601.41;6200762;28;103671;-60
2022/05/09 05:34:18;;;;;;;4.57;4.27;;;;;;;20.80;35.52;95597.66;6207324;28;103776;-60
2022/05/09 05:37:20;;;;;;;5.80;5.10;;;;;;;20.89;35.27;95603.97;6207386;28;103823;-59
2022/05/09 05:40:22;;;;;;;5.47;4.93;;;;;;;20.93;35.11;95599.66;6208190;28;104774;-59
2022/05/09 05:43:24;;;;;;;6.40;4.90;;;;;;;21.01;35.03;95603.56;6196724;28;104178;-59
2022/05/09 05:46:26;;;;;;;5.70;4.80;;;;;;;21.08;34.77;95604.03;6206942;28;104845;-59
2022/05/09 05:49:28;;;;;;;5.57;4.90;;;;;;;21.11;34.88;95598.13;6207472;28;104953;-59
2022/05/09 05:52:31;;;;;;;5.40;4.90;;;;;;;21.19;34.73;95608.16;6207404;28;103637;-60
2022/05/09 05:55:33;;;;;;;5.63;5.13;;;;;;;21.23;34.87;95606.50;6197510;28;103574;-59
2022/05/09 05:58:35;;;;;;;5.30;4.30;;;;;;;21.29;34.40;95608.00;6207604;28;103747;-59
2022/05/09 06:01:37;;;;;;;5.40;5.00;;;;;;;21.34;34.71;95599.16;6207325;28;104199;-59
2022/05/09 06:04:38;;;;;;;5.50;5.00;;;;;;;21.37;34.63;95604.72;6202265;28;104703;-59
2022/05/09 06:07:41;;;;;;;6.37;5.77;;;;;;;21.41;34.38;95600.41;6202220;28;103483;-59
2022/05/09 06:10:42;;;;;;;5.77;5.37;;;;;;;21.44;34.31;95602.47;6207645;28;104772;-58
2022/05/09 06:13:44;;;;;;;5.80;5.20;;;;;;;21.47;34.60;95601.13;6206783;28;103790;-59
2022/05/09 06:16:46;;;;;;;5.80;5.00;;;;;;;21.50;34.46;95596.00;6197715;28;105716;-59
2022/05/09 06:19:47;;;;;;;6.83;4.83;;;;;;;21.56;34.39;95606.59;6206112;28;103981;-58
2022/05/09 06:22:49;;;;;;;5.73;5.23;;;;;;;21.67;34.77;95610.69;6207239;28;103804;-59
2022/05/09 06:25:51;;;;;;;7.03;5.60;;;;;;;21.77;34.01;95605.22;6207057;28;104533;-61
2022/05/09 06:28:53;;;;;;;6.13;5.53;;;;;;;21.85;34.40;95609.16;6196138;28;103684;-60
2022/05/09 06:31:55;;;;;;;6.20;5.17;;;;;;;21.89;34.83;95610.94;6207459;28;103746;-59
2022/05/09 06:34:57;;;;;;;6.97;6.37;;;;;;;21.90;34.22;95601.84;6206489;28;104783;-59
2022/05/09 06:38:03;;;;;;;8.83;6.07;;;;;;;21.87;34.20;95602.44;6207145;28;104776;-58
2022/05/09 06:41:07;;;;;;;6.30;5.70;;;;;;;21.87;34.25;95597.09;6197609;28;104021;-59
2022/05/09 06:44:09;;;;;;;6.43;5.20;;;;;;;21.89;34.11;95597.59;6210716;28;103746;-59
2022/05/09 06:47:12;;;;;;;7.23;5.10;;;;;;;21.91;34.30;95599.97;6211168;28;103604;-60
2022/05/09 06:50:16;;;;;;;5.73;5.00;;;;;;;21.94;34.25;95600.19;6205212;28;105071;-59
2022/05/09 06:53:18;;;;;;;5.77;5.20;;;;;;;21.95;33.85;95596.44;6206514;28;104787;-59
2022/05/09 06:56:21;;;;;;;6.33;5.70;;;;;;;22.00;34.08;95600.88;6210832;28;103006;-60
2022/05/09 06:59:23;;;;;;;6.47;5.73;;;;;;;22.02;34.25;95590.75;6211666;28;103820;-59
2022/05/09 07:02:25;;;;;;;5.70;5.07;;;;;;;22.04;34.02;95591.25;6201528;28;104608;-59
2022/05/09 07:05:27;;;;;;;5.87;5.20;;;;;;;22.07;33.83;95594.13;6210378;28;104375;-60
2022/05/09 07:08:32;;;;;;;7.30;5.73;;;;;;;22.10;33.69;95592.72;6211252;28;104022;-60
2022/05/09 07:11:34;;;;;;;5.73;5.23;;;;;;;22.13;33.48;95597.47;6211151;28;104695;-58
2022/05/09 07:14:36;;;;;;;6.30;5.33;;;;;;;22.14;33.27;95584.94;6201070;28;105092;-60
2022/05/09 07:17:37;;;;;;;7.33;6.03;;;;;;;22.16;33.80;95588.09;6211019;28;103916;-60
2022/05/09 07:20:39;;;;;;;6.63;5.10;;;;;;;22.18;33.95;95580.59;6210472;28;103767;-59
2022/05/09 07:23:42;;;;;;;9.07;5.77;;;;;;;22.18;33.55;95580.59;6210815;28;104885;-59
2022/05/09 07:26:44;;;;;;;6.40;5.80;;;;;;;22.23;33.64;95583.19;6200411;28;103718;-59
2022/05/09 07:29:45;;;;;;;6.00;5.40;;;;;;;22.24;33.55;95585.56;6210906;28;104005;-59
2022/05/09 07:32:47;;;;;;;7.70;5.30;;;;;;;22.26;33.81;95587.94;6210346;28;103930;-58
2022/05/09 07:35:49;;;;;;;9.70;6.10;;;;;;;22.27;33.76;95586.84;6204501;28;104881;-60
2022/05/09 07:38:51;;;;;;;6.63;5.60;;;;;;;22.30;33.21;95589.72;6206619;28;103962;-60
2022/05/09 07:41:52;;;;;;;6.70;5.57;;;;;;;22.31;33.75;95579.84;6209824;28;103605;-59
2022/05/09 07:44:56;;;;;;;9.80;6.37;;;;;;;22.30;33.53;95581.72;6210903;28;104958;-59
2022/05/09 07:47:58;;;;;;;5.93;5.33;;;;;;;22.31;33.62;95587.84;6200345;28;104799;-59
2022/05/09 07:51:00;;;;;;;6.60;5.53;;;;;;;22.31;33.39;95582.50;6209269;28;103780;-59
2022/05/09 07:54:01;;;;;;;8.33;6.10;;;;;;;22.33;33.76;95580.34;6209346;28;103727;-59
2022/05/09 07:57:04;;;;;;;8.07;6.40;;;;;;;22.34;33.17;95581.91;6209327;28;103765;-59
2022/05/09 08:00:07;;;;;;;6.83;5.37;;;;;;;22.36;33.41;95588.56;6201403;28;104698;-59
2022/05/09 08:03:16;;;;;;;10.63;5.87;;;;;;;22.35;33.27;95586.19;6208861;28;103622;-60
2022/05/09 08:06:18;;;;;;;6.60;5.90;;;;;;;22.36;33.48;95583.22;6209774;28;103647;-59
2022/05/09 08:09:20;;;;;;;7.30;5.27;;;;;;;22.39;32.99;95584.50;6206322;28;103946;-59
2022/05/09 08:12:22;;;;;;;9.77;5.13;;;;;;;22.41;33.40;95582.34;6203512;28;103302;-59
2022/05/09 08:15:26;;;;;;;6.13;5.30;;;;;;;22.45;32.84;95583.31;6209282;28;103904;-59
2022/05/09 08:18:29;;;;;;;5.87;5.00;;;;;;;22.48;33.75;95585.41;6209301;28;104758;-58
2022/05/09 08:21:31;;;;;;;8.47;5.63;;;;;;;22.50;33.79;95583.22;6199002;28;103410;-59
2022/05/09 08:24:34;;;;;;;7.30;5.77;;;;;;;22.51;34.28;95579.47;6208961;28;103895;-59
2022/05/09 08:27:36;;;;;;;6.03;4.27;;;;;;;22.53;34.29;95580.00;6209155;28;105006;-60
2022/05/09 08:30:39;;;;;;;5.30;4.80;;;;;;;22.53;34.19;95582.66;6209451;28;103899;-59
2022/05/09 08:33:40;;;;;;;6.40;5.50;;;;;;;22.54;34.36;95581.56;6198318;28;103861;-59
2022/05/09 08:36:50;;;;;;;6.10;4.90;;;;;;;22.56;34.45;95586.59;6209048;28;103970;-59
2022/05/09 08:39:52;;;;;;;6.30;5.00;;;;;;;22.57;34.21;95589.00;6208564;28;103727;-60
2022/05/09 08:43:19;;;;;;;5.80;5.03;;;;;;;22.54;34.09;95589.56;6208372;28;103678;-59
2022/05/09 08:46:45;;;;;;;5.97;5.07;;;;;;;22.65;34.28;95584.84;6202038;28;104800;-59
2022/05/09 08:50:16;;;;;;;7.53;4.40;;;;;;;22.69;34.27;95575.19;6206186;28;104051;-59
2022/05/09 08:53:24;;;;;;;5.73;5.13;;;;;;;22.67;34.04;95580.00;6208360;28;102994;-59
2022/05/09 08:56:26;;;;;;;5.10;4.60;;;;;;;22.66;34.24;95589.09;6172583;28;103929;-59
2022/05/09 08:59:36;;;;;;;5.33;4.17;;;;;;;22.66;33.96;95575.75;6184046;28;104058;-59
2022/05/09 09:02:44;;;;;;;4.80;4.40;;;;;;;22.66;34.12;95573.09;6183736;28;104943;-59
2022/05/09 09:05:49;;;;;;;5.33;4.80;;;;;;;22.66;33.95;95573.09;6183980;28;105292;-60
2022/05/09 09:09:09;;;;;;;5.57;4.87;;;;;;;22.66;34.37;95571.22;6174017;28;103895;-59
2022/05/09 09:12:11;;;;;;;5.30;4.80;;;;;;;22.66;34.24;95579.22;6183044;28;103651;-59
2022/05/09 09:15:32;;;;;;;5.63;4.60;;;;;;;22.65;33.97;95569.63;6183840;28;105234;-59
2022/05/09 09:18:36;;;;;;;7.00;4.53;;;;;;;22.64;33.93;95562.72;6172049;28;103900;-59
2022/05/09 09:22:05;;;;;;;4.43;4.03;;;;;;;22.65;34.35;95563.50;6183048;28;103688;-59
2022/05/09 09:25:25;;;;;;;4.20;3.80;;;;;;;22.64;34.47;95570.72;6183219;28;103778;-59
2022/05/09 09:28:36;;;;;;;5.10;4.60;;;;;;;22.64;34.00;95567.28;6183375;28;103989;-59
2022/05/09 09:31:49;;;;;;;6.47;3.90;;;;;;;22.66;33.69;95557.88;6174456;28;104698;-59
2022/05/09 09:35:10;;;;;;;4.63;3.93;;;;;;;22.70;34.16;95561.56;6183329;28;103822;-60
2022/05/09 09:38:34;;;;;;;4.50;3.80;;;;;;;22.70;34.21;95552.75;6183806;28;104954;-59
2022/05/09 09:41:36;;;;;;;5.27;4.00;;;;;;;22.64;34.54;95556.59;6171877;28;103920;-59
2022/05/09 09:44:44;;;;;;;5.67;3.90;;;;;;;22.63;34.43;95555.81;6183129;28;104708;-59
2022/05/09 09:47:46;;;;;;;4.50;4.10;;;;;;;22.60;34.00;95542.28;6164811;28;103887;-59
2022/05/09 09:51:17;;;;;;;4.63;4.00;;;;;;;22.61;34.10;95549.19;6183163;28;104686;-59
2022/05/09 09:54:22;;;;;;;4.37;3.97;;;;;;;22.60;33.98;95548.41;6183571;28;104673;-59
2022/05/09 09:57:30;;;;;;;3.77;3.40;;;;;;;22.59;34.24;95543.38;6207784;28;103885;-58
2022/05/09 10:00:35;;;;;;;3.63;3.33;;;;;;;22.55;33.81;95545.81;6208224;28;104328;-59
2022/05/09 10:03:45;;;;;;;3.30;3.00;;;;;;;22.55;33.86;95545.03;6196349;28;104116;-59
2022/05/09 10:07:24;;;;;;;5.83;3.80;;;;;;;22.53;33.73;95548.00;6208180;28;104799;-59
2022/05/09 10:10:27;;;;;;;4.03;3.73;;;;;;;22.54;33.59;95543.44;6193776;28;103933;-59
2022/05/09 10:13:37;;;;;;;5.30;3.73;;;;;;;22.53;34.06;95536.53;6207526;28;104981;-59
2022/05/09 10:16:45;;;;;;;3.70;3.40;;;;;;;22.50;33.66;95532.56;6198773;28;103783;-59
2022/05/09 10:19:48;;;;;;;3.37;3.07;;;;;;;22.52;33.95;95534.94;6212757;28;105016;-59
2022/05/09 10:26:13;;;;;;;5.33;3.97;;;;;;;22.49;33.53;95530.19;6202138;28;104693;-60
2022/05/09 10:29:17;;;;;;;3.83;3.53;;;;;;;22.48;33.52;95526.72;6211367;28;103141;-59
2022/05/09 10:32:27;;;;;;;4.30;3.83;;;;;;;22.47;33.65;95527.81;6211221;28;104759;-59
2022/05/09 10:35:39;;;;;;;3.80;3.50;;;;;;;22.45;33.65;95524.66;6211574;28;104065;-59
2022/05/09 10:38:48;;;;;;;5.00;3.87;;;;;;;22.44;33.85;95531.06;6200526;28;103849;-59
2022/05/09 10:41:55;;;;;;;3.60;3.30;;;;;;;22.42;33.85;95530.59;6211496;28;103961;-59
2022/05/09 10:45:04;;;;;;;3.40;3.10;;;;;;;22.41;33.60;95527.13;6211582;28;105040;-59
2022/05/09 10:48:34;;;;;;;3.67;3.37;;;;;;;22.41;33.48;95519.13;6207731;28;106948;-60
2022/05/09 10:51:58;;;;;;;4.67;3.23;;;;;;;22.41;33.43;95526.34;6207233;28;104021;-60
2022/05/09 10:55:10;;;;;;;4.20;3.80;;;;;;;22.39;33.56;95517.84;6211358;28;104977;-59
2022/05/09 10:58:49;;;;;;;5.90;3.87;;;;;;;22.40;33.44;95519.44;6211460;28;104775;-59
2022/05/09 11:01:56;;;;;;;4.30;3.70;;;;;;;22.36;33.64;95510.44;6187190;28;103685;-59
2022/05/09 11:04:59;;;;;;;5.00;3.43;;;;;;;22.33;33.43;95511.00;6212112;28;103682;-59
2022/05/09 11:08:17;;;;;;;4.50;4.10;;;;;;;22.35;33.62;95516.88;6211297;28;104705;-59
2022/05/09 11:12:08;;;;;;;3.80;3.50;;;;;;;22.34;33.70;95504.59;6205974;28;103650;-59
2022/05/09 11:15:59;;;;;;;5.67;3.03;;;;;;;22.33;33.29;95493.13;6160905;28;103781;-59
2022/05/09 11:19:08;;;;;;;3.33;3.13;;;;;;;22.33;33.22;95493.13;6166479;28;104707;-59
2022/05/09 11:22:39;;;;;;;4.03;3.53;;;;;;;22.32;33.25;95490.78;6206988;28;104503;-60
2022/05/09 11:25:59;;;;;;;4.07;3.67;;;;;;;22.31;33.39;95494.53;6163950;28;103849;-59
2022/05/09 11:29:26;;;;;;;4.10;3.70;;;;;;;22.29;33.29;95491.38;6210486;28;104008;-58
2022/05/09 11:32:41;;;;;;;4.13;3.83;;;;;;;22.27;33.23;95489.00;6209673;28;103882;-58
2022/05/09 11:35:47;;;;;;;3.30;3.00;;;;;;;22.28;33.20;95484.47;6200148;28;104168;-58
2022/05/09 11:39:37;;;;;;;3.20;2.87;;;;;;;22.28;33.25;95479.13;6209851;28;103793;-58
2022/05/09 11:46:42;;;;;;;3.57;3.27;;;;;;;22.26;32.86;95474.09;6199529;28;103668;-58
2022/05/09 11:50:04;;;;;;;3.50;3.20;;;;;;;22.24;33.51;95480.81;6210079;28;105078;-57
2022/05/09 11:53:07;;;;;;;3.30;3.10;;;;;;;22.21;33.20;95468.88;6209163;28;103857;-56
2022/05/09 11:56:09;;;;;;;3.90;3.60;;;;;;;22.20;33.33;95474.50;6186279;28;103590;-58
2022/05/09 11:59:30;;;;;;;3.10;2.90;;;;;;;22.18;32.78;95469.47;6176649;28;103975;-58
2022/05/09 12:02:54;;;;;;;3.53;3.23;;;;;;;22.20;33.10;95466.50;6184723;28;104923;-58
2022/05/09 12:06:05;;;;;;;2.90;2.60;;;;;;;22.19;32.94;95457.72;6185421;28;103937;-58
2022/05/09 12:09:11;;;;;;;3.83;3.53;;;;;;;22.20;32.63;95453.97;6174508;28;103634;-57
2022/05/09 12:12:35;;;;;;;4.43;4.10;;;;;;;22.19;32.81;95451.59;6184710;28;103939;-57
2022/05/09 12:15:41;;;;;;;4.70;4.30;;;;;;;22.18;32.96;95444.66;6184484;28;104735;-57
2022/05/09 12:19:00;;;;;;;4.50;4.10;;;;;;;22.18;32.88;95448.13;6185064;28;103691;-58
2022/05/09 12:22:34;;;;;;;4.27;3.97;;;;;;;22.16;32.69;95436.94;6178860;28;104804;-58
2022/05/09 12:25:44;;;;;;;4.23;3.83;;;;;;;22.15;33.04;95442.59;6184964;28;104993;-58
2022/05/09 12:28:48;;;;;;;3.97;3.67;;;;;;;22.14;32.60;95438.34;6184806;28;104567;-58
2022/05/09 12:32:02;;;;;;;3.50;3.20;;;;;;;22.12;32.25;95438.63;6155709;28;106246;-58
2022/05/09 12:35:07;;;;;;;4.33;3.93;;;;;;;22.12;32.44;95433.31;6184471;28;103945;-58
2022/05/09 12:38:33;;;;;;;4.23;3.83;;;;;;;22.13;32.25;95439.44;6182898;28;103336;-58
2022/05/09 12:41:48;;;;;;;3.60;3.30;;;;;;;22.14;32.28;95431.13;6183521;28;103705;-58
2022/05/09 12:44:53;;;;;;;3.60;3.00;;;;;;;22.14;32.36;95420.47;6178326;28;104795;-59
2022/05/09 12:47:56;;;;;;;4.00;3.63;;;;;;;22.11;32.35;95416.53;6184556;28;104221;-58
2022/05/09 12:51:12;;;;;;;3.00;2.73;;;;;;;22.11;32.29;95419.19;6184285;28;103751;-58
2022/05/09 12:54:17;;;;;;;3.37;3.07;;;;;;;22.13;31.98;95418.09;6179699;28;104887;-58
2022/05/09 12:57:32;;;;;;;3.37;2.90;;;;;;;22.12;32.09;95411.97;6208700;28;104160;-58
2022/05/09 13:00:37;;;;;;;2.90;2.60;;;;;;;22.13;32.53;95420.78;6207690;28;104078;-58
2022/05/09 13:04:05;;;;;;;3.00;2.70;;;;;;;22.10;32.02;95414.94;6208593;28;104273;-58
2022/05/09 13:07:08;;;;;;;3.90;2.90;;;;;;;22.10;32.28;95409.63;6198019;28;104615;-58
2022/05/09 13:10:13;;;;;;;2.77;2.57;;;;;;;22.11;32.35;95399.75;6208224;28;103702;-58
2022/05/09 13:13:36;;;;;;;2.60;2.40;;;;;;;22.10;31.75;95395.50;6208094;28;103993;-58
2022/05/09 13:16:50;;;;;;;3.00;2.53;;;;;;;22.11;31.72;95397.06;6198664;28;104063;-58
2022/05/09 13:19:53;;;;;;;2.73;2.40;;;;;;;22.09;32.12;95389.38;6208358;28;103593;-58
2022/05/09 13:23:00;;;;;;;2.40;2.20;;;;;;;22.11;31.93;95378.44;6208164;28;103652;-58
2022/05/09 13:26:05;;;;;;;2.90;2.67;;;;;;;22.12;31.95;95374.66;6208059;28;103722;-58
2022/05/09 13:29:09;;;;;;;2.70;2.50;;;;;;;22.13;31.95;95380.78;6196667;28;103886;-58
2022/05/09 13:32:34;;;;;;;2.53;2.33;;;;;;;22.09;31.93;95386.72;6208215;28;105099;-61
2022/05/09 13:35:38;;;;;;;2.93;2.73;;;;;;;22.09;31.54;95380.59;6207956;28;103823;-58
2022/05/09 13:38:42;;;;;;;4.30;3.80;;;;;;;22.10;31.92;95374.97;6203240;28;104877;-58
2022/05/09 13:41:44;;;;;;;4.43;4.03;;;;;;;22.09;31.55;95378.72;6202992;28;103989;-58
2022/05/09 13:44:47;;;;;;;5.00;4.60;;;;;;;22.10;31.91;95374.19;6208091;28;103538;-57
2022/05/09 13:47:57;;;;;;;6.60;6.10;;;;;;;22.09;31.57;95375.28;6207947;28;103707;-58
2022/05/09 13:51:00;;;;;;;6.97;6.10;;;;;;;22.08;32.25;95366.47;6195407;28;104858;-58
2022/05/09 13:54:06;;;;;;;6.17;5.67;;;;;;;22.07;32.21;95359.56;6207545;28;103820;-58
2022/05/09 13:57:22;;;;;;;5.83;5.33;;;;;;;22.08;32.04;95358.50;6208245;28;105036;-58
2022/05/09 14:00:30;;;;;;;5.40;5.00;;;;;;;22.07;32.24;95369.44;6207392;28;104961;-58
2022/05/09 14:03:48;;;;;;;5.13;4.73;;;;;;;22.07;31.63;95367.56;6197239;28;103959;-58
2022/05/09 14:06:50;;;;;;;4.97;4.57;;;;;;;22.07;32.12;95362.25;6207553;28;105058;-59
2022/05/09 14:09:52;;;;;;;4.53;4.03;;;;;;;22.08;31.77;95369.16;6207807;28;103763;-58
2022/05/09 14:12:55;;;;;;;4.60;4.20;;;;;;;22.08;32.02;95357.69;6202623;28;104940;-59
2022/05/09 14:16:01;;;;;;;5.00;4.60;;;;;;;22.09;32.04;95360.06;6202129;28;103625;-58
2022/05/09 14:19:21;;;;;;;4.27;3.87;;;;;;;22.09;31.92;95354.72;6207755;28;103300;-58
2022/05/09 14:22:25;;;;;;;5.40;4.90;;;;;;;22.09;31.77;95361.94;6205852;28;103811;-58
2022/05/09 14:32:42;;;;;;;8.27;7.47;;;;;;;22.09;32.00;95354.72;6191872;28;103773;-53
2022/05/09 14:35:46;;;;;;;9.50;8.70;;;;;;;22.11;32.41;95357.88;6200353;28;103488;-53
2022/05/09 14:38:55;;;;;;;8.13;7.53;;;;;;;22.11;31.95;95357.09;6202979;28;103681;-54
2022/05/09 14:42:23;;;;;;;9.03;8.13;;;;;;;22.13;31.99;95359.47;6207198;28;104972;-54
2022/05/09 14:45:27;;;;;;;6.60;4.83;;;;;;;22.04;30.55;95362.84;6202591;28;104103;-56
2022/05/09 14:48:30;;;;;;;4.20;3.83;;;;;;;22.02;31.36;95359.69;6196230;28;104744;-57
2022/05/09 14:51:32;;;;;;;6.50;5.90;;;;;;;22.05;31.40;95355.63;6206906;28;104553;-55